createdAt,value
2022-10-05T03:57:47.289Z,9.55
2022-10-05T04:00:56.202Z,9.55
2022-10-05T04:04:04.294Z,9.11
2022-10-05T04:07:11.628Z,9.11
2022-10-05T04:10:49.413Z,9.14
2022-10-05T04:14:00.842Z,9.17
2022-10-05T04:17:09.854Z,9.16
2022-10-05T04:20:22.235Z,9.14
2022-10-05T04:23:50.711Z,9.15
2022-10-05T04:26:57.598Z,9.20
2022-10-05T04:30:09.195Z,9.23
2022-10-05T04:33:13.602Z,9.25
2022-10-05T04:36:24.611Z,9.31
2022-10-05T04:39:53.634Z,9.19
2022-10-05T04:43:17.358Z,9.17
2022-10-05T04:46:58.325Z,9.05
2022-10-05T04:50:20.402Z,9.11
2022-10-05T04:53:37.161Z,8.94
2022-10-05T04:56:51.775Z,9.17
2022-10-05T04:59:59.706Z,9.08
2022-10-05T05:03:39.281Z,9.04
2022-10-05T05:07:05.450Z,9.20
2022-10-05T05:10:32.426Z,9.30
2022-10-05T05:13:53.925Z,9.18
2022-10-05T05:17:15.067Z,9.10
2022-10-05T05:20:59.357Z,9.29
2022-10-05T05:24:20.507Z,9.45
2022-10-05T05:27:25.377Z,9.39
2022-10-05T05:30:43.670Z,9.36
2022-10-05T05:33:48.545Z,9.40
2022-10-05T05:37:04.172Z,9.49
2022-10-05T05:40:18.551Z,9.50
2022-10-05T05:43:35.863Z,9.67
2022-10-05T05:47:02.394Z,9.64
2022-10-05T05:50:10.312Z,9.67
2022-10-05T05:53:31.590Z,9.84
2022-10-05T05:56:45.236Z,10.11
2022-10-05T06:00:00.614Z,10.08
2022-10-05T06:03:18.943Z,10.04
2022-10-05T06:06:26.880Z,10.09
2022-10-05T06:09:37.981Z,10.32
2022-10-05T06:12:48.376Z,10.38
2022-10-05T06:15:57.887Z,10.36
2022-10-05T06:19:22.546Z,10.18
2022-10-05T06:22:38.747Z,10.26
2022-10-05T06:26:05.982Z,10.39
2022-10-05T06:29:19.113Z,10.54
2022-10-05T06:32:41.326Z,10.50
2022-10-05T06:35:55.185Z,10.53
2022-10-05T06:39:31.897Z,10.67
2022-10-05T06:43:05.430Z,10.66
2022-10-05T06:46:26.602Z,10.85
2022-10-05T06:49:53.469Z,11.05
2022-10-05T06:53:14.944Z,11.19
2022-10-05T06:56:25.511Z,11.29
2022-10-05T06:59:46.561Z,11.56
2022-10-05T07:02:54.560Z,11.66
2022-10-05T07:06:50.952Z,11.88
2022-10-05T07:10:22.222Z,11.92
2022-10-05T07:13:46.150Z,11.96
2022-10-05T07:17:07.093Z,12.04
2022-10-05T07:20:15.822Z,12.32
2022-10-05T07:23:32.754Z,12.47
2022-10-05T07:26:54.961Z,12.52
2022-10-05T07:30:00.965Z,12.59
2022-10-05T07:33:17.694Z,12.56
2022-10-05T07:36:59.273Z,12.65
2022-10-05T07:40:29.657Z,12.87
2022-10-05T07:44:02.358Z,12.99
2022-10-05T07:47:17.339Z,12.98
2022-10-05T07:50:29.580Z,12.89
2022-10-05T07:53:44.467Z,13.07
2022-10-05T07:57:18.819Z,13.24
2022-10-05T08:00:23.784Z,13.22
2022-10-05T08:03:58.231Z,13.31
2022-10-05T08:07:05.690Z,13.31
2022-10-05T08:10:18.450Z,13.45
2022-10-05T08:13:35.591Z,13.63
2022-10-05T08:16:38.497Z,13.72
2022-10-05T08:19:50.886Z,13.82
2022-10-05T08:23:18.759Z,13.74
2022-10-05T08:26:30.977Z,13.70
2022-10-05T08:29:56.502Z,13.78
2022-10-05T08:33:14.694Z,14.05
2022-10-05T08:36:24.055Z,13.98
2022-10-05T08:39:36.095Z,14.16
2022-10-05T08:42:58.702Z,14.17
2022-10-05T08:46:31.385Z,14.45
2022-10-05T08:50:04.236Z,14.55
2022-10-05T08:53:28.809Z,14.71
2022-10-05T08:56:56.045Z,14.75
2022-10-05T09:00:23.234Z,14.89
2022-10-05T09:04:01.970Z,14.95
2022-10-05T09:07:37.000Z,14.87
2022-10-05T09:10:59.377Z,14.80
2022-10-05T09:14:26.932Z,14.77
2022-10-05T09:17:43.147Z,14.83
2022-10-05T09:20:56.010Z,14.88
2022-10-05T09:24:13.286Z,15.06
2022-10-05T09:27:19.720Z,15.08
2022-10-05T09:31:03.755Z,15.21
2022-10-05T09:34:31.034Z,15.32
2022-10-05T09:37:53.578Z,15.36
2022-10-05T09:41:14.821Z,15.44
2022-10-05T09:44:54.626Z,15.49
2022-10-05T09:48:38.164Z,15.63
2022-10-05T09:52:20.648Z,15.68
2022-10-05T09:55:44.161Z,15.85
2022-10-05T09:59:19.036Z,15.88
2022-10-05T10:02:33.053Z,15.95
2022-10-05T10:06:10.446Z,15.98
2022-10-05T10:09:27.866Z,16.01
2022-10-05T10:13:02.529Z,15.97
2022-10-05T10:16:23.782Z,15.93
2022-10-05T10:19:57.834Z,15.90
2022-10-05T10:24:00.085Z,15.98
2022-10-05T10:27:16.415Z,16.05
2022-10-05T10:30:40.790Z,16.02
2022-10-05T10:33:45.884Z,16.26
2022-10-05T10:36:51.280Z,16.18
2022-10-05T10:40:06.228Z,16.31
2022-10-05T10:43:45.809Z,16.41
2022-10-05T10:47:09.878Z,16.44
2022-10-05T10:50:28.244Z,16.32
2022-10-05T10:54:03.985Z,16.31
2022-10-05T10:57:10.078Z,16.43
2022-10-05T11:00:22.243Z,16.47
2022-10-05T11:04:04.162Z,16.40
2022-10-05T11:07:24.943Z,16.49
2022-10-05T11:10:46.108Z,16.44
2022-10-05T11:14:21.195Z,16.57
2022-10-05T11:17:33.430Z,16.58
2022-10-05T11:20:49.289Z,16.50
2022-10-05T11:24:38.808Z,16.50
2022-10-05T11:27:59.487Z,16.51
2022-10-05T11:31:16.626Z,16.55
2022-10-05T11:34:48.613Z,16.59
2022-10-05T11:38:12.461Z,16.63
2022-10-05T11:41:44.143Z,16.65
2022-10-05T11:45:15.973Z,16.72
2022-10-05T11:48:30.137Z,16.81
2022-10-05T11:51:45.965Z,16.80
2022-10-05T11:55:10.266Z,16.80
2022-10-05T11:58:26.024Z,16.81
2022-10-05T12:01:46.658Z,16.93
2022-10-05T12:04:54.862Z,17.10
2022-10-05T12:08:03.573Z,17.14
2022-10-05T12:11:32.394Z,17.23
2022-10-05T12:15:19.009Z,17.32
2022-10-05T12:18:31.089Z,17.41
2022-10-05T12:21:56.180Z,17.29
2022-10-05T12:25:04.196Z,17.33
2022-10-05T12:28:13.078Z,17.35
2022-10-05T12:31:46.470Z,17.46
2022-10-05T12:35:29.686Z,17.46
2022-10-05T12:38:46.018Z,17.47
2022-10-05T12:42:00.094Z,17.52
2022-10-05T12:45:23.666Z,17.47
2022-10-05T12:48:31.500Z,17.56
2022-10-05T12:51:53.727Z,17.59
2022-10-05T12:55:11.184Z,17.54
2022-10-05T12:58:21.223Z,17.60
2022-10-05T13:01:49.293Z,17.55
2022-10-05T13:05:21.615Z,17.53
2022-10-05T13:08:50.989Z,17.56
2022-10-05T13:11:57.677Z,17.74
2022-10-05T13:15:16.762Z,17.67
2022-10-05T13:18:38.484Z,17.55
2022-10-05T13:21:49.517Z,17.49
2022-10-05T13:25:13.583Z,17.45
2022-10-05T13:28:36.516Z,17.46
2022-10-05T13:31:50.749Z,17.45
2022-10-05T13:35:06.727Z,17.53
2022-10-05T13:38:26.882Z,17.60
2022-10-05T13:41:28.860Z,17.61
2022-10-05T13:44:42.731Z,17.63
2022-10-05T13:48:19.830Z,17.68
2022-10-05T13:51:28.088Z,17.69
2022-10-05T13:55:06.777Z,17.71
2022-10-05T13:58:33.154Z,17.66
2022-10-05T14:01:47.646Z,17.65
2022-10-05T14:05:01.950Z,17.66
2022-10-05T14:08:04.137Z,17.65
2022-10-05T14:11:26.725Z,17.62
2022-10-05T14:14:50.042Z,17.66
2022-10-05T14:17:52.680Z,17.70
2022-10-05T14:21:16.841Z,17.72
2022-10-05T14:24:43.247Z,17.68
2022-10-05T14:27:54.798Z,17.70
2022-10-05T14:31:03.785Z,17.73
2022-10-05T14:34:24.833Z,17.74
2022-10-05T14:37:58.029Z,17.71
2022-10-05T14:41:27.897Z,17.71
2022-10-05T14:48:00.024Z,17.73
2022-10-05T14:51:03.292Z,17.66
2022-10-05T14:54:20.635Z,17.66
2022-10-05T14:57:37.426Z,17.67
2022-10-05T15:01:11.125Z,17.65
2022-10-05T15:04:25.292Z,17.64
2022-10-05T15:07:40.924Z,17.63
2022-10-05T15:10:50.901Z,17.56
2022-10-05T15:13:54.425Z,17.49
2022-10-05T15:17:20.470Z,17.44
2022-10-05T15:20:34.736Z,17.41
